Shoal, North Carolina
Current Conditions -  °F | °C
As of 8:35 AM on Friday 28 Nov 2014 (Local Time) from KMWK Reporting Station
Overcast Overcast  
Wind Chill: 33°   Ceiling: 4000
Heat Index: 33°   Visibility: 10mi
Dew Point: 20°   Wind: 3mph
Humidity: 60%   Direction: 10°N
Pressure: 30.36"   Gusts: NA
Location:  36.3244°N, 80.463°W
Report Text: KMWK 281335Z AUTO 01003KT 10SM OVC040 01/M06 A3036 RMK AO2 T00061064
Loading
Personal Weather Stations






























Interactive Weather Map New forecast layout! Learn more

10-Day Weather Forecast

Advertisements
Track Severe Weather on mobile